createdAt,value
2023-03-21T00:01:54.166Z,19.77
2023-03-21T00:04:58.517Z,22.35
2023-03-21T00:08:04.875Z,22.17
2023-03-21T00:11:08.919Z,22.00
2023-03-21T00:14:14.516Z,24.15
2023-03-21T00:17:16.932Z,20.20
2023-03-21T00:20:19.282Z,22.65
2023-03-21T00:23:21.094Z,19.50
2023-03-21T00:26:22.866Z,21.42
2023-03-21T00:29:24.648Z,20.15
2023-03-21T00:32:26.725Z,21.60
2023-03-21T00:38:53.558Z,19.10
2023-03-21T00:41:55.468Z,21.23
2023-03-21T00:44:59.817Z,21.55
2023-03-21T00:48:01.482Z,22.60
2023-03-21T00:51:21.754Z,20.02
2023-03-21T00:54:23.395Z,21.52
2023-03-21T00:57:38.065Z,24.70
2023-03-21T01:00:41.556Z,19.23
2023-03-21T01:03:48.090Z,19.55
2023-03-21T01:06:49.728Z,22.10
2023-03-21T01:09:52.935Z,23.35
2023-03-21T01:12:54.749Z,18.50
2023-03-21T01:15:58.016Z,19.38
2023-03-21T01:18:59.879Z,20.92
2023-03-21T01:22:01.992Z,20.17
2023-03-21T01:25:21.186Z,21.17
2023-03-21T01:28:27.223Z,20.50
2023-03-21T01:31:29.228Z,21.15
2023-03-21T01:34:31.374Z,22.67
2023-03-21T01:37:34.542Z,22.98
2023-03-21T01:40:37.638Z,21.20
2023-03-21T01:43:59.557Z,19.25
2023-03-21T01:47:12.318Z,23.10
2023-03-21T01:53:42.763Z,21.52
2023-03-21T01:56:47.862Z,18.52
2023-03-21T01:59:54.809Z,16.80
2023-03-21T02:03:34.988Z,20.05
2023-03-21T02:07:01.050Z,20.58
2023-03-21T02:10:14.727Z,19.83
2023-03-21T02:13:21.865Z,16.65
2023-03-21T02:16:42.711Z,22.33
2023-03-21T02:20:16.235Z,19.33
2023-03-21T02:23:36.972Z,18.08
2023-03-21T02:27:24.049Z,18.23
2023-03-21T02:30:51.623Z,18.45
2023-03-21T02:34:13.080Z,18.92
2023-03-21T02:37:38.347Z,17.00
2023-03-21T02:40:50.483Z,16.30
2023-03-21T02:44:20.483Z,16.52
2023-03-21T02:47:47.717Z,18.20
2023-03-21T02:50:55.425Z,19.27
2023-03-21T02:54:28.310Z,18.67
2023-03-21T02:57:31.338Z,16.00
2023-03-21T03:00:42.786Z,17.33
2023-03-21T03:03:45.069Z,15.98
2023-03-21T03:07:11.584Z,16.75
2023-03-21T03:10:16.000Z,17.13
2023-03-21T03:13:50.901Z,16.60
2023-03-21T03:17:01.631Z,14.52
2023-03-21T03:23:37.535Z,16.23
2023-03-21T03:26:46.700Z,17.13
2023-03-21T03:29:50.084Z,16.73
2023-03-21T03:33:02.186Z,15.77
2023-03-21T03:36:07.047Z,18.00
2023-03-21T03:39:13.218Z,15.77
2023-03-21T03:42:44.054Z,14.23
2023-03-21T03:46:05.413Z,17.08
2023-03-21T03:49:13.431Z,15.40
2023-03-21T03:52:28.003Z,15.13
2023-03-21T03:55:41.969Z,14.77
2023-03-21T03:58:51.978Z,12.73
2023-03-21T04:01:58.610Z,14.35
2023-03-21T04:05:01.293Z,13.65
2023-03-21T04:08:04.264Z,13.23
2023-03-21T04:11:19.060Z,20.00
2023-03-21T04:14:35.557Z,18.98
2023-03-21T04:17:40.657Z,18.65
2023-03-21T04:20:45.199Z,15.73
2023-03-21T04:23:47.790Z,17.25
2023-03-21T04:26:49.936Z,18.35
2023-03-21T04:30:12.585Z,16.55
2023-03-21T04:33:40.081Z,18.65
2023-03-21T04:36:47.615Z,15.77
2023-03-21T04:39:51.230Z,20.13
2023-03-21T04:42:52.977Z,16.52
2023-03-21T04:45:55.753Z,15.50
2023-03-21T04:48:57.703Z,18.05
2023-03-21T04:51:59.773Z,15.85
2023-03-21T04:55:02.848Z,16.15
2023-03-21T04:58:05.673Z,19.08
2023-03-21T05:01:08.100Z,17.75
2023-03-21T05:04:10.811Z,17.23
2023-03-21T05:07:13.624Z,15.65
2023-03-21T05:10:15.802Z,16.33
2023-03-21T05:13:17.647Z,16.35
2023-03-21T05:16:19.501Z,15.80
2023-03-21T05:19:36.259Z,15.50
2023-03-21T05:22:40.816Z,18.00
2023-03-21T05:25:46.579Z,17.25
2023-03-21T05:28:52.383Z,17.10
2023-03-21T05:31:54.483Z,19.17
2023-03-21T05:34:56.957Z,17.65
2023-03-21T05:37:58.819Z,19.52
2023-03-21T05:41:03.677Z,18.23
2023-03-21T05:44:06.917Z,20.50
2023-03-21T05:47:10.528Z,19.92
2023-03-21T05:50:17.830Z,18.42
2023-03-21T05:56:30.313Z,24.48
2023-03-21T05:59:37.560Z,25.80
2023-03-21T06:02:42.030Z,20.92
2023-03-21T06:05:59.076Z,19.88
2023-03-21T06:09:08.989Z,24.05
2023-03-21T06:12:12.600Z,22.98
2023-03-21T06:15:19.924Z,21.13
2023-03-21T06:18:38.298Z,26.55
2023-03-21T06:21:58.190Z,25.27
2023-03-21T06:25:00.585Z,24.15
2023-03-21T06:28:03.536Z,27.63
2023-03-21T06:31:07.364Z,22.17
2023-03-21T06:34:11.721Z,27.23
2023-03-21T06:37:13.554Z,25.25
2023-03-21T06:40:16.732Z,22.85
2023-03-21T06:43:18.701Z,27.70
2023-03-21T06:46:21.672Z,26.27
2023-03-21T06:49:23.549Z,21.67
2023-03-21T06:52:25.600Z,25.23
2023-03-21T06:55:29.492Z,22.00
2023-03-21T06:58:36.669Z,22.35
2023-03-21T07:01:39.293Z,27.13
2023-03-21T07:04:42.949Z,21.50
2023-03-21T07:07:51.021Z,21.88
2023-03-21T07:10:57.218Z,23.80
2023-03-21T07:14:00.116Z,26.10
2023-03-21T07:17:02.141Z,21.50
2023-03-21T07:20:12.846Z,22.88
2023-03-21T07:23:14.521Z,23.80
2023-03-21T07:26:18.378Z,21.80
2023-03-21T07:29:23.213Z,24.58
2023-03-21T07:32:25.012Z,24.52
2023-03-21T07:35:26.927Z,23.08
2023-03-21T07:38:31.136Z,20.23
2023-03-21T07:41:33.868Z,23.00
2023-03-21T07:44:47.003Z,22.60
2023-03-21T07:47:49.949Z,26.23
2023-03-21T07:50:52.692Z,21.95
2023-03-21T07:53:54.807Z,19.50
2023-03-21T07:56:57.385Z,26.40
2023-03-21T07:59:59.226Z,20.48
2023-03-21T08:03:01.619Z,21.38
2023-03-21T08:06:03.625Z,19.40
2023-03-21T08:09:08.238Z,18.40
2023-03-21T08:12:10.796Z,36.45
2023-03-21T08:15:14.114Z,24.23
2023-03-21T08:18:16.114Z,19.85
2023-03-21T08:21:17.705Z,21.98
2023-03-21T08:24:19.879Z,20.98
2023-03-21T08:27:21.865Z,19.98
2023-03-21T08:30:27.273Z,22.27
2023-03-21T08:33:30.353Z,19.27
2023-03-21T08:36:32.262Z,22.20
2023-03-21T08:39:33.882Z,21.20
2023-03-21T08:42:36.211Z,21.92
2023-03-21T08:45:38.140Z,23.10
2023-03-21T08:48:40.251Z,18.58
2023-03-21T08:51:45.753Z,21.35
2023-03-21T08:54:48.946Z,22.25
2023-03-21T08:57:51.420Z,18.63
2023-03-21T09:00:53.202Z,22.90
2023-03-21T09:03:55.069Z,16.40
2023-03-21T09:06:57.510Z,22.55
2023-03-21T09:10:19.195Z,22.77
2023-03-21T09:13:23.195Z,19.92
2023-03-21T09:16:25.222Z,23.05
2023-03-21T09:19:27.838Z,18.17
2023-03-21T09:22:29.944Z,19.25
2023-03-21T09:25:33.462Z,16.02
2023-03-21T09:28:37.484Z,28.42
2023-03-21T09:31:43.968Z,18.85
2023-03-21T09:34:46.048Z,18.20
2023-03-21T09:37:49.766Z,17.40
2023-03-21T09:41:04.558Z,21.65
2023-03-21T09:44:40.577Z,20.50
2023-03-21T09:47:54.689Z,16.73
2023-03-21T09:50:57.566Z,19.38
2023-03-21T09:54:06.745Z,17.55
2023-03-21T09:57:22.031Z,19.42
2023-03-21T10:00:43.519Z,17.52
2023-03-21T10:03:47.329Z,17.27
2023-03-21T10:07:04.157Z,20.02
2023-03-21T10:10:07.478Z,17.08
2023-03-21T10:13:17.218Z,20.42
2023-03-21T10:16:32.454Z,17.80
2023-03-21T10:19:34.329Z,18.27
2023-03-21T10:22:36.536Z,17.98
2023-03-21T10:25:46.488Z,16.85
2023-03-21T10:28:53.185Z,17.17
2023-03-21T10:31:55.799Z,16.08
2023-03-21T10:34:59.242Z,15.13
2023-03-21T10:38:01.743Z,18.63
2023-03-21T10:41:03.691Z,16.58
2023-03-21T10:44:28.756Z,15.25
2023-03-21T10:47:33.784Z,14.38
2023-03-21T10:50:35.934Z,17.35
2023-03-21T10:53:53.654Z,18.13
2023-03-21T10:56:57.329Z,16.08
2023-03-21T11:00:07.865Z,15.00
2023-03-21T11:03:31.337Z,16.10
2023-03-21T11:06:37.783Z,15.75
2023-03-21T11:09:50.041Z,18.05
2023-03-21T11:12:57.201Z,16.83
2023-03-21T11:16:10.313Z,16.77
2023-03-21T11:19:16.972Z,18.40
2023-03-21T11:22:25.297Z,18.70
2023-03-21T11:25:38.381Z,19.35
2023-03-21T11:28:42.034Z,18.27
2023-03-21T11:31:44.836Z,16.90
2023-03-21T11:35:06.068Z,18.52
2023-03-21T11:38:26.375Z,16.75
2023-03-21T11:41:35.070Z,16.52
2023-03-21T11:44:44.234Z,18.70
2023-03-21T11:47:48.651Z,19.20
2023-03-21T11:50:56.537Z,19.27
2023-03-21T11:54:21.159Z,17.27
2023-03-21T11:57:31.921Z,20.25
2023-03-21T12:00:49.957Z,20.30
2023-03-21T12:04:27.307Z,21.10
2023-03-21T12:08:01.389Z,17.38
2023-03-21T12:11:55.731Z,21.23
2023-03-21T12:18:47.063Z,17.42
2023-03-21T12:22:02.110Z,22.55
2023-03-21T12:28:55.141Z,18.17
2023-03-21T12:32:18.870Z,19.35
2023-03-21T12:35:25.664Z,18.90
2023-03-21T12:38:51.093Z,18.85
2023-03-21T12:42:16.412Z,21.08
2023-03-21T12:45:18.083Z,22.52
2023-03-21T12:48:41.347Z,20.60
2023-03-21T12:51:56.132Z,20.08
2023-03-21T12:54:57.847Z,17.83
2023-03-21T12:58:10.387Z,20.45
2023-03-21T13:01:15.807Z,21.23
2023-03-21T13:05:06.085Z,18.10
2023-03-21T13:08:15.972Z,24.77
2023-03-21T13:11:21.922Z,16.48
2023-03-21T13:14:34.066Z,17.30
2023-03-21T13:17:46.008Z,20.13
2023-03-21T13:20:55.534Z,23.73
2023-03-21T13:24:03.837Z,20.20
2023-03-21T13:27:24.840Z,16.95
2023-03-21T13:30:29.551Z,16.95
2023-03-21T13:33:34.747Z,20.27
2023-03-21T13:36:38.416Z,14.63
2023-03-21T13:39:44.905Z,16.38
2023-03-21T13:42:52.664Z,13.20
2023-03-21T13:45:54.627Z,13.32
2023-03-21T13:49:00.970Z,15.05
2023-03-21T13:52:28.967Z,18.25
2023-03-21T13:55:41.528Z,11.95
2023-03-21T13:58:48.590Z,17.55
2023-03-21T14:02:21.260Z,13.27
2023-03-21T14:05:25.110Z,16.38
2023-03-21T14:08:37.261Z,14.52
2023-03-21T14:11:44.475Z,14.63
2023-03-21T14:15:22.518Z,15.02
2023-03-21T14:18:35.322Z,13.48
2023-03-21T14:21:53.908Z,15.13
2023-03-21T14:24:57.276Z,13.70
2023-03-21T14:28:03.987Z,15.07
2023-03-21T14:31:06.919Z,13.93
2023-03-21T14:34:10.526Z,16.13
2023-03-21T14:37:12.233Z,13.90
2023-03-21T14:40:27.163Z,17.13
2023-03-21T14:43:29.049Z,15.27
2023-03-21T14:46:30.611Z,17.23
2023-03-21T14:49:35.291Z,16.15
2023-03-21T14:52:38.909Z,12.38
2023-03-21T14:55:54.507Z,18.48
2023-03-21T14:58:56.547Z,14.18
2023-03-21T15:02:00.326Z,13.30
2023-03-21T15:05:15.641Z,19.70
2023-03-21T15:08:22.874Z,13.18
2023-03-21T15:11:39.054Z,11.48
2023-03-21T15:14:41.608Z,13.85
2023-03-21T15:17:43.599Z,10.00
2023-03-21T15:20:48.928Z,10.32
2023-03-21T15:23:55.497Z,12.00
2023-03-21T15:27:02.671Z,11.82
2023-03-21T15:30:05.066Z,8.40
2023-03-21T15:33:10.561Z,11.40
2023-03-21T15:36:12.635Z,13.80
2023-03-21T15:39:17.268Z,10.65
2023-03-21T15:42:29.394Z,11.77
2023-03-21T15:45:31.448Z,11.48
2023-03-21T15:48:35.148Z,8.60
2023-03-21T15:51:37.166Z,11.27
2023-03-21T15:54:48.040Z,10.10
2023-03-21T16:00:55.722Z,9.90
2023-03-21T16:04:02.632Z,12.15
2023-03-21T16:07:17.229Z,9.93
2023-03-21T16:10:31.984Z,9.32
2023-03-21T16:13:33.978Z,10.95
2023-03-21T16:16:36.419Z,8.93
2023-03-21T16:19:38.313Z,11.52
2023-03-21T16:22:40.547Z,9.32
2023-03-21T16:25:44.152Z,10.95
2023-03-21T16:28:46.293Z,11.32
2023-03-21T16:31:49.006Z,9.40
2023-03-21T16:34:53.914Z,11.73
2023-03-21T16:37:55.803Z,10.88
2023-03-21T16:40:57.539Z,11.32
2023-03-21T16:43:59.180Z,9.93
2023-03-21T16:47:02.305Z,11.90
2023-03-21T16:50:16.478Z,10.50
2023-03-21T16:53:18.077Z,9.57
2023-03-21T16:56:24.318Z,13.25
2023-03-21T16:59:26.228Z,8.73
2023-03-21T17:02:28.210Z,10.35
2023-03-21T17:05:32.997Z,7.85
2023-03-21T17:08:35.100Z,9.27
2023-03-21T17:11:37.516Z,11.32
2023-03-21T17:14:41.328Z,9.23
2023-03-21T17:17:44.710Z,7.15
2023-03-21T17:20:46.604Z,7.88
2023-03-21T17:23:49.046Z,6.57
2023-03-21T17:26:52.673Z,6.75
2023-03-21T17:29:54.741Z,9.93
2023-03-21T17:32:56.720Z,7.18
2023-03-21T17:35:58.758Z,7.60
2023-03-21T17:39:00.579Z,7.50
2023-03-21T17:42:02.635Z,5.22
2023-03-21T17:45:04.562Z,7.55
2023-03-21T17:48:06.299Z,5.93
2023-03-21T17:51:12.631Z,8.15
2023-03-21T17:54:16.037Z,5.20
2023-03-21T17:57:17.866Z,7.03
2023-03-21T18:00:23.312Z,7.78
2023-03-21T18:03:24.908Z,5.30
2023-03-21T18:06:27.271Z,6.70
2023-03-21T18:09:29.008Z,5.47
2023-03-21T18:12:31.395Z,6.57
2023-03-21T18:15:32.932Z,5.90
2023-03-21T18:18:35.341Z,5.07
2023-03-21T18:21:40.703Z,7.60
2023-03-21T18:24:42.754Z,6.22
2023-03-21T18:28:03.589Z,5.72
2023-03-21T18:31:14.333Z,7.25
2023-03-21T18:34:18.701Z,6.18
2023-03-21T18:37:22.045Z,5.82
2023-03-21T18:40:25.119Z,5.18
2023-03-21T18:46:52.870Z,4.90
2023-03-21T18:50:13.376Z,7.72
2023-03-21T18:53:17.610Z,6.07
2023-03-21T18:57:13.283Z,5.45
2023-03-21T18:59:42.226Z,7.80
2023-03-21T19:02:48.037Z,7.50
2023-03-21T19:05:50.302Z,7.57
2023-03-21T19:08:53.493Z,8.60
2023-03-21T19:11:55.697Z,6.88
2023-03-21T19:14:57.550Z,7.93
2023-03-21T19:21:21.993Z,5.72
2023-03-21T19:24:28.048Z,8.40
2023-03-21T19:27:30.645Z,4.28
2023-03-21T19:30:32.566Z,6.28
2023-03-21T19:33:34.697Z,4.50
2023-03-21T19:36:36.845Z,7.85
2023-03-21T19:39:38.739Z,5.30
2023-03-21T19:42:41.902Z,4.95
2023-03-21T19:45:47.123Z,4.75
2023-03-21T19:48:50.256Z,5.68
2023-03-21T19:51:53.339Z,5.95
2023-03-21T19:54:55.154Z,9.32
2023-03-21T19:57:56.830Z,7.30
2023-03-21T20:00:59.158Z,6.22
2023-03-21T20:04:01.011Z,6.80
2023-03-21T20:07:02.796Z,8.68
2023-03-21T20:10:06.598Z,7.47
2023-03-21T20:13:08.901Z,5.00
2023-03-21T20:16:11.243Z,4.85
2023-03-21T20:19:14.790Z,4.55
2023-03-21T20:22:27.223Z,4.60
2023-03-21T20:25:34.029Z,8.15
2023-03-21T20:28:38.056Z,9.00
2023-03-21T20:31:40.135Z,4.13
2023-03-21T20:34:44.402Z,6.60
2023-03-21T20:37:52.861Z,4.85
2023-03-21T20:40:54.490Z,5.75
2023-03-21T20:44:41.620Z,5.70
2023-03-21T20:47:22.477Z,5.63
2023-03-21T20:50:26.028Z,8.23
2023-03-21T20:53:28.534Z,6.93
2023-03-21T20:56:30.527Z,5.88
2023-03-21T20:59:32.725Z,6.18
2023-03-21T21:02:34.607Z,5.63
2023-03-21T21:05:38.178Z,6.55
2023-03-21T21:08:41.448Z,6.00
2023-03-21T21:12:06.184Z,6.03
2023-03-21T21:15:07.878Z,5.40
2023-03-21T21:18:10.056Z,7.18
2023-03-21T21:21:12.512Z,5.43
2023-03-21T21:24:14.762Z,5.55
2023-03-21T21:27:16.779Z,6.88
2023-03-21T21:30:18.478Z,6.65
2023-03-21T21:33:21.370Z,6.60
2023-03-21T21:36:23.386Z,7.47
2023-03-21T21:39:26.479Z,6.88
2023-03-21T21:42:28.279Z,9.85
2023-03-21T21:45:30.066Z,11.57
2023-03-21T21:48:32.049Z,9.85
2023-03-21T21:51:34.967Z,7.10
2023-03-21T21:54:36.812Z,7.80
2023-03-21T21:57:39.929Z,6.30
2023-03-21T22:00:42.677Z,7.00
2023-03-21T22:03:46.011Z,5.72
2023-03-21T22:06:47.802Z,6.68
2023-03-21T22:09:49.542Z,6.60
2023-03-21T22:12:51.808Z,8.20
2023-03-21T22:15:53.966Z,6.63
2023-03-21T22:18:55.816Z,7.35
2023-03-21T22:21:58.197Z,7.10
2023-03-21T22:24:59.861Z,9.82
2023-03-21T22:28:01.657Z,7.50
2023-03-21T22:31:17.292Z,7.82
2023-03-21T22:34:19.033Z,6.63
2023-03-21T22:37:20.818Z,6.47
2023-03-21T22:40:22.655Z,6.43
2023-03-21T22:43:24.828Z,9.75
2023-03-21T22:46:27.653Z,10.05
2023-03-21T22:49:29.592Z,7.40
2023-03-21T22:52:31.424Z,6.20
2023-03-21T22:55:33.118Z,8.38
2023-03-21T22:58:34.862Z,7.25
2023-03-21T23:01:36.762Z,7.78
2023-03-21T23:04:40.016Z,9.15
2023-03-21T23:07:41.777Z,8.82
2023-03-21T23:10:45.421Z,8.13
2023-03-21T23:13:58.712Z,11.20
2023-03-21T23:17:06.825Z,6.82
2023-03-21T23:20:08.937Z,9.40
2023-03-21T23:23:10.854Z,9.43
2023-03-21T23:26:12.775Z,8.07
2023-03-21T23:29:14.641Z,9.02
2023-03-21T23:32:16.466Z,9.75
2023-03-21T23:35:18.529Z,8.98
2023-03-21T23:38:20.303Z,7.85
2023-03-21T23:41:23.718Z,9.32
2023-03-21T23:44:25.389Z,9.80
2023-03-21T23:47:27.262Z,13.60
2023-03-21T23:50:28.949Z,10.73
2023-03-21T23:53:30.800Z,8.23
2023-03-21T23:56:32.624Z,10.80
2023-03-21T23:59:34.743Z,13.02
